createdAt,value
2018-03-30T00:02:09.261Z,83.29
2018-03-30T00:04:35.346Z,83.60
2018-03-30T00:07:06.159Z,84.15
2018-03-30T00:09:44.347Z,84.52
2018-03-30T00:12:10.326Z,85.13
2018-03-30T00:14:36.325Z,85.41
2018-03-30T00:17:02.446Z,85.10
2018-03-30T00:19:28.510Z,85.27
2018-03-30T00:21:54.547Z,85.17
2018-03-30T00:24:20.582Z,85.19
2018-03-30T00:26:46.705Z,84.58
2018-03-30T00:29:12.854Z,85.43
2018-03-30T00:31:38.914Z,86.00
2018-03-30T00:34:04.922Z,86.56
2018-03-30T00:36:31.005Z,86.10
2018-03-30T00:38:57.124Z,86.22
2018-03-30T00:41:23.110Z,86.75
2018-03-30T00:43:49.095Z,87.27
2018-03-30T00:46:15.194Z,88.14
2018-03-30T00:48:41.213Z,88.30
2018-03-30T00:51:07.189Z,88.76
2018-03-30T00:53:50.169Z,89.74
2018-03-30T00:56:16.234Z,90.25
2018-03-30T00:58:42.240Z,90.68
2018-03-30T01:01:08.939Z,91.29
2018-03-30T01:03:34.938Z,91.57
2018-03-30T01:06:01.247Z,92.20
2018-03-30T01:08:27.354Z,92.49
2018-03-30T01:13:26.103Z,92.76
2018-03-30T01:15:52.093Z,91.91
2018-03-30T01:18:18.125Z,92.55
2018-03-30T01:20:44.153Z,92.63
2018-03-30T01:23:10.153Z,93.04
2018-03-30T01:25:36.180Z,91.81
2018-03-30T01:28:02.214Z,92.84
2018-03-30T01:30:28.230Z,92.63
2018-03-30T01:32:54.234Z,93.13
2018-03-30T01:35:21.258Z,92.51
2018-03-30T01:37:47.282Z,92.20
2018-03-30T01:40:13.269Z,92.40
2018-03-30T01:42:39.291Z,92.14
2018-03-30T01:45:05.297Z,92.39
2018-03-30T01:47:31.291Z,91.70
2018-03-30T01:49:57.384Z,91.82
2018-03-30T01:52:23.422Z,92.00
2018-03-30T01:54:49.427Z,91.99
2018-03-30T01:57:15.434Z,91.89
2018-03-30T01:59:41.445Z,92.10
2018-03-30T02:02:07.457Z,92.29
2018-03-30T02:04:33.463Z,91.57
2018-03-30T02:06:59.489Z,92.36
2018-03-30T02:09:25.499Z,92.82
2018-03-30T02:11:51.486Z,92.67
2018-03-30T02:14:17.534Z,92.44
2018-03-30T02:16:43.510Z,92.17
2018-03-30T02:19:09.530Z,92.32
2018-03-30T02:21:35.585Z,92.52
2018-03-30T02:24:01.570Z,92.96
2018-03-30T02:26:27.596Z,92.10
2018-03-30T02:28:53.597Z,91.88
2018-03-30T02:31:19.619Z,92.16
2018-03-30T02:33:45.586Z,92.21
2018-03-30T02:36:11.597Z,92.68
2018-03-30T02:38:37.598Z,92.13
2018-03-30T02:41:03.592Z,91.90
2018-03-30T02:43:29.666Z,92.02
2018-03-30T02:45:55.652Z,92.06
2018-03-30T02:48:21.682Z,92.21
2018-03-30T02:50:47.694Z,91.91
2018-03-30T02:53:13.731Z,91.97
2018-03-30T02:55:39.723Z,92.61
2018-03-30T02:58:05.779Z,92.45
2018-03-30T03:00:31.811Z,91.64
2018-03-30T03:02:57.838Z,92.27
2018-03-30T03:05:24.598Z,92.48
2018-03-30T03:07:50.654Z,92.06
2018-03-30T03:10:16.702Z,92.08
2018-03-30T03:12:42.731Z,92.06
2018-03-30T03:15:15.594Z,92.11
2018-03-30T03:17:41.597Z,92.04
2018-03-30T03:20:07.664Z,92.31
2018-03-30T03:22:33.681Z,91.44
2018-03-30T03:24:59.689Z,91.94
2018-03-30T03:27:25.704Z,92.26
2018-03-30T03:29:51.713Z,92.12
2018-03-30T03:32:17.709Z,92.15
2018-03-30T03:34:43.714Z,92.71
2018-03-30T03:37:09.678Z,92.34
2018-03-30T03:39:35.694Z,91.72
2018-03-30T03:42:01.811Z,92.04
2018-03-30T03:44:27.819Z,92.07
2018-03-30T03:46:53.878Z,92.12
2018-03-30T03:49:19.881Z,92.24
2018-03-30T03:51:45.875Z,91.93
2018-03-30T03:54:11.883Z,92.42
2018-03-30T03:56:37.889Z,92.50
2018-03-30T03:59:03.891Z,92.28
2018-03-30T04:01:29.909Z,92.08
2018-03-30T04:03:56.587Z,92.20
2018-03-30T04:06:22.691Z,92.25
2018-03-30T04:08:48.717Z,92.15
2018-03-30T04:11:14.727Z,92.53
2018-03-30T04:13:41.109Z,92.64
2018-03-30T04:16:07.211Z,92.63
2018-03-30T04:18:33.227Z,92.55
2018-03-30T04:20:59.250Z,92.70
2018-03-30T04:23:25.244Z,92.49
2018-03-30T04:25:51.324Z,92.51
2018-03-30T04:28:17.309Z,92.50
2018-03-30T04:30:43.289Z,92.42
2018-03-30T04:33:09.385Z,92.50
2018-03-30T04:35:35.361Z,92.30
2018-03-30T04:38:01.362Z,92.30
2018-03-30T04:40:27.361Z,92.52
2018-03-30T04:42:53.384Z,93.01
2018-03-30T04:45:19.381Z,92.54
2018-03-30T04:47:45.390Z,92.77
2018-03-30T04:50:11.431Z,92.83
2018-03-30T04:52:37.425Z,93.02
2018-03-30T04:55:03.452Z,92.79
2018-03-30T04:57:29.442Z,92.77
2018-03-30T04:59:55.485Z,92.86
2018-03-30T05:02:21.533Z,92.81
2018-03-30T05:04:47.553Z,92.76
2018-03-30T05:07:13.560Z,93.31
2018-03-30T05:09:39.611Z,93.62
2018-03-30T05:12:05.649Z,93.52
2018-03-30T05:14:31.632Z,93.36
2018-03-30T05:16:57.698Z,92.92
2018-03-30T05:19:23.703Z,93.14
2018-03-30T05:21:49.726Z,93.41
2018-03-30T05:24:15.697Z,93.08
2018-03-30T05:26:41.775Z,92.81
2018-03-30T05:29:07.799Z,93.42
2018-03-30T05:31:33.824Z,93.40
2018-03-30T05:33:59.846Z,93.47
2018-03-30T05:36:25.825Z,93.00
2018-03-30T05:38:51.834Z,93.09
2018-03-30T05:41:17.846Z,93.30
2018-03-30T05:43:43.861Z,92.96
2018-03-30T05:46:09.883Z,93.23
2018-03-30T05:48:35.931Z,92.93
2018-03-30T05:51:01.998Z,93.17
2018-03-30T05:53:28.070Z,92.83
2018-03-30T05:55:54.199Z,93.34
2018-03-30T05:58:20.204Z,92.87
2018-03-30T06:00:46.210Z,92.94
2018-03-30T06:03:12.250Z,93.03
2018-03-30T06:05:38.287Z,93.46
2018-03-30T06:08:04.317Z,93.12
2018-03-30T06:10:30.326Z,93.46
2018-03-30T06:12:56.382Z,93.80
2018-03-30T06:15:22.387Z,93.42
2018-03-30T06:17:48.358Z,93.62
2018-03-30T06:20:14.414Z,93.61
2018-03-30T06:22:40.502Z,93.34
2018-03-30T06:25:06.539Z,93.48
2018-03-30T06:27:32.536Z,92.97
2018-03-30T06:29:58.610Z,93.08
2018-03-30T06:32:24.659Z,92.04
2018-03-30T06:34:50.669Z,91.54
2018-03-30T06:37:16.761Z,91.69
2018-03-30T06:39:42.849Z,91.73
2018-03-30T06:42:09.807Z,91.34
2018-03-30T06:44:35.824Z,91.51
2018-03-30T06:47:01.814Z,91.52
2018-03-30T06:49:27.812Z,91.48
2018-03-30T06:51:53.823Z,91.11
2018-03-30T06:54:19.840Z,91.52
2018-03-30T06:56:52.861Z,91.92
2018-03-30T06:59:18.990Z,91.24
2018-03-30T07:01:45.062Z,90.70
2018-03-30T07:04:11.090Z,91.23
2018-03-30T07:06:37.230Z,89.48
2018-03-30T07:09:03.370Z,89.42
2018-03-30T07:11:29.357Z,89.00
2018-03-30T07:13:55.383Z,88.16
2018-03-30T07:16:21.395Z,88.46
2018-03-30T07:18:47.381Z,87.69
2018-03-30T07:21:13.403Z,87.57
2018-03-30T07:23:39.412Z,87.88
2018-03-30T07:26:05.400Z,87.18
2018-03-30T07:28:31.421Z,86.90
2018-03-30T07:30:57.459Z,86.18
2018-03-30T07:33:23.522Z,86.07
2018-03-30T07:35:49.567Z,84.93
2018-03-30T07:38:15.562Z,84.42
2018-03-30T07:40:41.624Z,83.61
2018-03-30T07:43:07.620Z,83.66
2018-03-30T07:45:33.613Z,84.00
2018-03-30T07:47:59.619Z,84.07
2018-03-30T07:50:25.643Z,83.17
2018-03-30T07:52:51.646Z,83.61
2018-03-30T07:55:17.687Z,83.60
2018-03-30T07:57:43.701Z,83.21
2018-03-30T08:00:09.706Z,82.97
2018-03-30T08:02:35.713Z,82.98
2018-03-30T08:05:01.782Z,82.85
2018-03-30T08:07:27.829Z,82.72
2018-03-30T08:09:53.825Z,82.44
2018-03-30T08:12:19.872Z,80.97
2018-03-30T08:14:45.960Z,81.00
2018-03-30T08:17:12.003Z,80.97
2018-03-30T08:19:38.035Z,79.98
2018-03-30T08:22:04.036Z,78.71
2018-03-30T08:24:30.035Z,77.71
2018-03-30T08:26:56.055Z,76.07
2018-03-30T08:29:22.209Z,75.46
2018-03-30T08:31:48.338Z,75.60
2018-03-30T08:34:14.362Z,75.28
2018-03-30T08:36:40.379Z,75.29
2018-03-30T08:39:06.451Z,74.51
2018-03-30T08:41:32.546Z,72.52
2018-03-30T08:43:58.623Z,71.75
2018-03-30T08:46:24.795Z,71.10
2018-03-30T08:48:50.831Z,70.94
2018-03-30T08:51:17.820Z,72.96
2018-03-30T08:53:43.815Z,72.90
2018-03-30T08:56:09.996Z,71.96
2018-03-30T08:58:36.030Z,72.87
2018-03-30T09:01:02.038Z,74.07
2018-03-30T09:03:28.061Z,72.76
2018-03-30T09:05:54.081Z,73.68
2018-03-30T09:08:20.072Z,73.88
2018-03-30T09:10:46.126Z,74.01
2018-03-30T09:13:12.146Z,72.55
2018-03-30T09:15:38.195Z,72.78
2018-03-30T09:18:04.200Z,71.39
2018-03-30T09:20:30.394Z,72.70
2018-03-30T09:22:56.544Z,72.43
2018-03-30T09:25:22.606Z,71.70
2018-03-30T09:27:48.650Z,70.84
2018-03-30T09:30:14.673Z,70.64
2018-03-30T09:32:40.870Z,70.06
2018-03-30T09:35:06.874Z,70.25
2018-03-30T09:37:32.873Z,69.78
2018-03-30T09:39:58.952Z,65.81
2018-03-30T09:42:25.061Z,65.31
2018-03-30T09:44:51.073Z,64.65
2018-03-30T09:47:17.109Z,62.07
2018-03-30T09:49:43.197Z,56.99
2018-03-30T09:52:09.238Z,53.60
2018-03-30T09:54:35.248Z,53.15
2018-03-30T09:57:01.347Z,52.15
2018-03-30T09:59:28.003Z,53.04
2018-03-30T10:01:54.087Z,54.21
2018-03-30T10:04:22.916Z,53.31
2018-03-30T10:06:48.983Z,55.59
2018-03-30T10:09:15.049Z,58.44
2018-03-30T10:11:41.061Z,59.29
2018-03-30T10:14:07.160Z,59.08
2018-03-30T10:16:33.302Z,58.47
2018-03-30T10:18:59.340Z,59.61
2018-03-30T10:21:25.390Z,59.09
2018-03-30T10:23:51.474Z,56.63
2018-03-30T10:26:17.618Z,54.14
2018-03-30T10:28:43.679Z,54.59
2018-03-30T10:31:09.702Z,52.47
2018-03-30T10:33:35.720Z,51.54
2018-03-30T10:36:01.803Z,53.78
2018-03-30T10:38:27.778Z,51.67
2018-03-30T10:40:53.815Z,52.54
2018-03-30T10:43:19.818Z,50.54
2018-03-30T10:45:45.867Z,54.52
2018-03-30T10:48:11.912Z,55.75
2018-03-30T10:50:37.966Z,54.66
2018-03-30T10:53:03.994Z,53.42
2018-03-30T10:55:30.051Z,53.18
2018-03-30T10:57:56.132Z,54.85
2018-03-30T11:00:22.167Z,54.55
2018-03-30T11:02:48.233Z,55.01
2018-03-30T11:05:14.364Z,53.48
2018-03-30T11:07:40.479Z,51.16
2018-03-30T11:10:06.529Z,52.08
2018-03-30T11:12:32.612Z,50.53
2018-03-30T11:14:58.734Z,50.68
2018-03-30T11:17:24.874Z,50.08
2018-03-30T11:19:50.914Z,49.12
2018-03-30T11:22:16.965Z,48.05
2018-03-30T11:24:43.027Z,49.49
2018-03-30T11:27:09.601Z,49.78
2018-03-30T11:29:35.710Z,50.50
2018-03-30T11:32:01.732Z,50.87
2018-03-30T11:34:27.822Z,52.70
2018-03-30T11:36:53.903Z,52.85
2018-03-30T11:39:19.976Z,51.93
2018-03-30T11:41:46.030Z,51.53
2018-03-30T11:44:12.127Z,46.86
2018-03-30T11:46:38.150Z,44.02
2018-03-30T11:49:04.243Z,44.52
2018-03-30T11:51:30.330Z,46.32
2018-03-30T11:53:56.404Z,46.89
2018-03-30T11:56:22.510Z,45.71
2018-03-30T11:58:48.523Z,47.05
2018-03-30T12:01:14.557Z,48.28
2018-03-30T12:03:40.931Z,49.32
2018-03-30T12:06:08.022Z,47.86
2018-03-30T12:08:34.085Z,48.50
2018-03-30T12:11:00.250Z,48.62
2018-03-30T15:53:17.212Z,45.56
2018-03-30T15:55:43.324Z,46.62
2018-03-30T15:58:09.516Z,46.22
2018-03-30T16:00:35.549Z,46.33
2018-03-30T16:03:01.544Z,46.23
2018-03-30T16:05:27.578Z,46.47
2018-03-30T16:07:53.645Z,47.40
2018-03-30T16:10:20.618Z,46.99
2018-03-30T16:12:46.781Z,47.15
2018-03-30T16:15:12.820Z,46.46
2018-03-30T16:17:38.815Z,45.80
2018-03-30T16:20:04.768Z,46.13
2018-03-30T16:22:31.249Z,46.92
2018-03-30T16:24:57.114Z,46.82
2018-03-30T16:27:22.927Z,46.69
2018-03-30T16:29:48.782Z,47.58
2018-03-30T16:32:14.622Z,46.72
2018-03-30T16:34:40.564Z,46.51
2018-03-30T16:37:07.096Z,47.23
2018-03-30T16:39:33.010Z,48.39
2018-03-30T16:41:58.841Z,48.05
2018-03-30T16:44:24.751Z,48.84
2018-03-30T16:46:50.605Z,48.56
2018-03-30T16:49:16.556Z,48.82
2018-03-30T16:51:42.622Z,48.69
2018-03-30T16:54:09.030Z,49.13
2018-03-30T16:56:34.872Z,49.21
2018-03-30T16:59:00.762Z,49.43
2018-03-30T17:01:26.593Z,49.69
2018-03-30T17:03:52.418Z,49.23
2018-03-30T17:06:18.397Z,49.42
2018-03-30T17:08:44.200Z,50.06
2018-03-30T17:11:10.056Z,50.32
2018-03-30T17:13:35.897Z,50.17
2018-03-30T17:16:01.727Z,50.57
2018-03-30T17:18:27.547Z,50.63
2018-03-30T17:20:53.423Z,51.07
2018-03-30T17:23:19.239Z,50.93
2018-03-30T17:25:45.197Z,51.53
2018-03-30T17:28:11.108Z,51.34
2018-03-30T17:30:36.910Z,52.26
2018-03-30T17:33:02.983Z,51.07
2018-03-30T17:35:28.814Z,51.75
2018-03-30T17:37:54.655Z,51.45
2018-03-30T17:40:20.544Z,50.12
2018-03-30T17:42:46.336Z,50.38
2018-03-30T17:45:12.234Z,50.86
2018-03-30T17:47:38.043Z,50.55
2018-03-30T17:50:03.890Z,50.38
2018-03-30T17:52:29.723Z,51.54
2018-03-30T17:54:55.545Z,51.22
2018-03-30T17:57:21.372Z,51.27
2018-03-30T17:59:47.352Z,51.78
2018-03-30T18:02:13.193Z,51.05
2018-03-30T18:04:39.045Z,51.48
2018-03-30T18:07:04.843Z,51.55
2018-03-30T18:09:30.658Z,51.45
2018-03-30T18:11:56.485Z,51.76
2018-03-30T18:14:22.379Z,51.75
2018-03-30T18:16:48.243Z,51.81
2018-03-30T18:19:14.060Z,52.43
2018-03-30T18:21:39.859Z,52.56
2018-03-30T18:24:05.760Z,52.24
2018-03-30T18:26:31.626Z,52.53
2018-03-30T18:28:57.463Z,53.02
2018-03-30T18:31:23.385Z,52.91
2018-03-30T18:33:49.222Z,52.81
2018-03-30T18:36:15.053Z,52.77
2018-03-30T18:38:40.987Z,52.74
2018-03-30T18:41:06.818Z,53.25
2018-03-30T18:43:32.654Z,57.40
2018-03-30T18:45:58.504Z,68.21
2018-03-30T18:48:24.302Z,72.32
2018-03-30T18:50:50.842Z,73.82
2018-03-30T18:53:16.827Z,74.83
2018-03-30T18:55:42.647Z,76.38
2018-03-30T18:58:08.586Z,80.11
2018-03-30T19:00:34.414Z,82.25
2018-03-30T19:03:00.230Z,84.68
2018-03-30T19:05:26.047Z,83.76
2018-03-30T19:07:51.851Z,83.61
2018-03-30T19:10:17.666Z,84.31
2018-03-30T19:12:43.514Z,85.79
2018-03-30T19:15:09.316Z,86.94
2018-03-30T19:17:35.216Z,87.62
2018-03-30T19:20:01.010Z,88.99
2018-03-30T19:22:26.852Z,89.61
2018-03-30T19:24:52.668Z,91.26
2018-03-30T19:27:18.490Z,92.95
2018-03-30T19:29:45.310Z,91.51
2018-03-30T19:32:11.139Z,92.21
2018-03-30T19:34:37.076Z,90.97
2018-03-30T19:37:03.060Z,91.09
2018-03-30T19:39:28.895Z,92.78
2018-03-30T19:41:54.708Z,93.07
2018-03-30T19:44:20.506Z,93.93
2018-03-30T19:46:46.332Z,94.76
2018-03-30T19:49:12.166Z,94.26
2018-03-30T19:51:37.952Z,94.63
2018-03-30T19:54:03.806Z,94.89
2018-03-30T19:56:29.607Z,94.20
2018-03-30T19:58:55.456Z,94.01
2018-03-30T20:01:21.296Z,94.30
2018-03-30T20:03:47.143Z,94.06
2018-03-30T20:06:13.087Z,94.02
2018-03-30T20:08:38.958Z,94.50
2018-03-30T20:11:04.799Z,94.86
2018-03-30T20:13:30.679Z,94.97
2018-03-30T20:15:56.519Z,95.68
2018-03-30T20:18:22.373Z,95.10
2018-03-30T20:20:48.189Z,94.10
2018-03-30T20:23:14.088Z,93.59
2018-03-30T20:25:39.861Z,94.78
2018-03-30T20:28:05.761Z,93.96
2018-03-30T20:30:31.609Z,93.89
2018-03-30T20:32:57.446Z,93.83
2018-03-30T20:35:23.281Z,93.79
2018-03-30T20:37:49.225Z,94.29
2018-03-30T20:40:15.056Z,94.94
2018-03-30T20:42:40.919Z,94.50
2018-03-30T20:45:06.943Z,95.00
2018-03-30T20:47:32.782Z,94.52
2018-03-30T20:49:58.958Z,95.32
2018-03-30T20:52:24.828Z,95.07
2018-03-30T20:54:50.636Z,94.53
2018-03-30T20:57:16.488Z,95.17
2018-03-30T20:59:42.753Z,95.74
2018-03-30T21:02:09.220Z,96.09
2018-03-30T21:04:35.041Z,96.26
2018-03-30T21:07:00.906Z,96.12
2018-03-30T21:09:26.758Z,96.50
2018-03-30T21:11:52.564Z,96.40
2018-03-30T21:14:18.550Z,96.13
2018-03-30T21:16:44.376Z,96.22
2018-03-30T21:19:10.165Z,97.24
2018-03-30T21:21:36.012Z,97.17
2018-03-30T21:24:01.824Z,96.99
2018-03-30T21:26:27.650Z,97.12
2018-03-30T21:28:53.524Z,97.26
2018-03-30T21:31:19.424Z,97.23
2018-03-30T21:33:45.265Z,97.33
2018-03-30T21:36:11.131Z,97.85
2018-03-30T21:38:37.002Z,97.68
2018-03-30T21:41:03.834Z,97.63
2018-03-30T21:43:29.694Z,98.10
2018-03-30T21:45:55.562Z,97.95
2018-03-30T21:48:21.378Z,97.89
2018-03-30T21:50:47.220Z,98.06
2018-03-30T21:53:13.078Z,98.14
2018-03-30T21:55:39.068Z,98.03
2018-03-30T21:58:05.051Z,98.25
2018-03-30T22:00:30.896Z,98.42
2018-03-30T22:02:56.744Z,97.90
2018-03-30T22:05:22.600Z,98.04
2018-03-30T22:07:48.400Z,97.43
2018-03-30T22:10:14.292Z,97.62
2018-03-30T22:12:40.196Z,97.49
2018-03-30T22:15:06.002Z,97.92
2018-03-30T22:17:31.861Z,97.54
2018-03-30T22:19:57.749Z,97.29
2018-03-30T22:22:23.648Z,97.50
2018-03-30T22:24:49.505Z,97.81
2018-03-30T22:27:15.474Z,97.69
2018-03-30T22:29:41.304Z,97.73
2018-03-30T22:32:07.218Z,97.90
2018-03-30T22:34:33.034Z,98.01
2018-03-30T22:36:58.977Z,97.98
2018-03-30T22:39:24.863Z,98.09
2018-03-30T22:41:50.800Z,98.09
2018-03-30T22:44:16.630Z,98.37
2018-03-30T22:46:42.462Z,97.81
2018-03-30T22:49:08.266Z,97.65
2018-03-30T22:51:34.119Z,97.85
2018-03-30T22:53:59.948Z,97.38
2018-03-30T22:56:25.784Z,96.80
2018-03-30T22:58:51.617Z,96.98
2018-03-30T23:01:17.496Z,96.78
2018-03-30T23:03:43.391Z,96.79
2018-03-30T23:06:09.189Z,97.17
2018-03-30T23:08:35.118Z,96.75
2018-03-30T23:11:00.930Z,97.18
2018-03-30T23:13:26.843Z,97.32
2018-03-30T23:15:52.695Z,96.94
2018-03-30T23:18:18.571Z,96.57
2018-03-30T23:20:44.442Z,96.82
2018-03-30T23:23:10.285Z,97.47
2018-03-30T23:25:36.134Z,97.53
2018-03-30T23:28:01.938Z,97.72
2018-03-30T23:30:27.780Z,97.60
2018-03-30T23:32:53.648Z,97.70
2018-03-30T23:35:19.541Z,97.93
2018-03-30T23:37:45.374Z,97.72
2018-03-30T23:40:11.214Z,97.69
2018-03-30T23:42:37.170Z,97.82
2018-03-30T23:45:02.970Z,96.83
2018-03-30T23:47:28.860Z,96.86
2018-03-30T23:49:54.726Z,96.62
2018-03-30T23:52:20.539Z,96.55
2018-03-30T23:54:46.387Z,96.96
2018-03-30T23:57:12.210Z,96.40
2018-03-30T23:59:38.077Z,95.62
